sensor_id;sensor_type;location;lat;lon;timestamp;pressure;altitude;pressure_sealevel;temperature;humidity
36234;BME280;43467;50.890;5.982;2022-09-09T00:01:10;99564.59;;;17.41;74.43
36234;BME280;43467;50.890;5.982;2022-09-09T00:03:50;99545.66;;;17.33;75.42
36234;BME280;43467;50.890;5.982;2022-09-09T00:06:43;99551.75;;;17.35;75.77
36234;BME280;43467;50.890;5.982;2022-09-09T00:09:17;99553.31;;;17.37;75.50
36234;BME280;43467;50.890;5.982;2022-09-09T00:11:46;99550.34;;;17.40;75.35
36234;BME280;43467;50.890;5.982;2022-09-09T00:17:00;99540.25;;;17.23;74.62
36234;BME280;43467;50.890;5.982;2022-09-09T00:22:18;99546.31;;;17.25;74.44
36234;BME280;43467;50.890;5.982;2022-09-09T00:24:58;99537.69;;;17.22;74.87
36234;BME280;43467;50.890;5.982;2022-09-09T00:27:54;99540.31;;;17.33;74.75
36234;BME280;43467;50.890;5.982;2022-09-09T00:30:26;99542.88;;;17.34;74.73
36234;BME280;43467;50.890;5.982;2022-09-09T00:32:59;99531.50;;;17.21;74.56
36234;BME280;43467;50.890;5.982;2022-09-09T00:35:34;99538.66;;;17.20;74.85
36234;BME280;43467;50.890;5.982;2022-09-09T00:46:10;99538.53;;;17.22;75.07
36234;BME280;43467;50.890;5.982;2022-09-09T00:48:52;99532.88;;;17.15;76.48
36234;BME280;43467;50.890;5.982;2022-09-09T01:01:44;99526.31;;;17.08;76.38
36234;BME280;43467;50.890;5.982;2022-09-09T01:04:13;99532.03;;;17.04;76.86
36234;BME280;43467;50.890;5.982;2022-09-09T01:06:43;99529.78;;;16.99;77.09
36234;BME280;43467;50.890;5.982;2022-09-09T01:14:30;99536.47;;;16.94;77.78
36234;BME280;43467;50.890;5.982;2022-09-09T01:17:03;99533.53;;;16.97;78.19
36234;BME280;43467;50.890;5.982;2022-09-09T01:20:04;99543.84;;;17.01;78.03
36234;BME280;43467;50.890;5.982;2022-09-09T01:22:35;99537.31;;;16.94;78.07
36234;BME280;43467;50.890;5.982;2022-09-09T01:27:51;99528.84;;;16.89;78.24
36234;BME280;43467;50.890;5.982;2022-09-09T01:30:18;99524.59;;;16.87;78.02
36234;BME280;43467;50.890;5.982;2022-09-09T01:32:46;99534.66;;;16.94;78.55
36234;BME280;43467;50.890;5.982;2022-09-09T01:37:52;99532.47;;;16.88;78.98
36234;BME280;43467;50.890;5.982;2022-09-09T01:40:17;99526.75;;;16.93;79.06
36234;BME280;43467;50.890;5.982;2022-09-09T01:42:42;99510.84;;;16.91;78.80
36234;BME280;43467;50.890;5.982;2022-09-09T01:45:08;99518.47;;;16.96;78.65
36234;BME280;43467;50.890;5.982;2022-09-09T01:47:35;99522.00;;;16.96;79.09
36234;BME280;43467;50.890;5.982;2022-09-09T01:50:01;99523.69;;;16.97;79.28
36234;BME280;43467;50.890;5.982;2022-09-09T01:52:28;99526.50;;;16.96;78.98
36234;BME280;43467;50.890;5.982;2022-09-09T01:54:54;99525.91;;;16.92;79.11
36234;BME280;43467;50.890;5.982;2022-09-09T01:57:33;99532.94;;;16.93;79.26
36234;BME280;43467;50.890;5.982;2022-09-09T02:00:06;99528.94;;;16.99;78.78
36234;BME280;43467;50.890;5.982;2022-09-09T02:05:53;99515.56;;;16.88;79.46
36234;BME280;43467;50.890;5.982;2022-09-09T02:08:24;99516.31;;;16.90;79.52
36234;BME280;43467;50.890;5.982;2022-09-09T02:11:17;99510.84;;;16.91;79.44
36234;BME280;43467;50.890;5.982;2022-09-09T02:13:47;99512.09;;;16.87;79.60
36234;BME280;43467;50.890;5.982;2022-09-09T02:16:22;99509.00;;;16.92;80.03
36234;BME280;43467;50.890;5.982;2022-09-09T02:18:55;99517.16;;;16.90;79.43
36234;BME280;43467;50.890;5.982;2022-09-09T02:21:23;99496.06;;;16.76;79.67
36234;BME280;43467;50.890;5.982;2022-09-09T02:23:50;99509.63;;;16.84;80.16
36234;BME280;43467;50.890;5.982;2022-09-09T02:26:18;99507.13;;;16.83;80.05
36234;BME280;43467;50.890;5.982;2022-09-09T02:28:49;99500.44;;;16.77;80.54
36234;BME280;43467;50.890;5.982;2022-09-09T02:31:20;99503.31;;;16.85;80.57
36234;BME280;43467;50.890;5.982;2022-09-09T02:33:52;99502.47;;;16.85;80.07
36234;BME280;43467;50.890;5.982;2022-09-09T02:36:19;99503.91;;;16.89;79.69
36234;BME280;43467;50.890;5.982;2022-09-09T02:38:47;99500.66;;;16.85;80.09
36234;BME280;43467;50.890;5.982;2022-09-09T02:41:20;99503.06;;;16.88;80.20
36234;BME280;43467;50.890;5.982;2022-09-09T02:43:48;99500.16;;;16.91;79.69
36234;BME280;43467;50.890;5.982;2022-09-09T02:49:04;99507.38;;;17.00;79.68
36234;BME280;43467;50.890;5.982;2022-09-09T02:51:45;99505.31;;;17.04;79.60
36234;BME280;43467;50.890;5.982;2022-09-09T02:54:25;99502.63;;;17.04;79.31
36234;BME280;43467;50.890;5.982;2022-09-09T02:56:53;99511.97;;;17.09;79.34
36234;BME280;43467;50.890;5.982;2022-09-09T02:59:22;99515.88;;;17.05;79.15
36234;BME280;43467;50.890;5.982;2022-09-09T03:01:47;99515.78;;;17.07;79.44
36234;BME280;43467;50.890;5.982;2022-09-09T03:04:13;99510.41;;;17.07;78.95
36234;BME280;43467;50.890;5.982;2022-09-09T03:06:39;99512.94;;;17.08;79.27
36234;BME280;43467;50.890;5.982;2022-09-09T03:09:04;99513.53;;;17.12;78.52
36234;BME280;43467;50.890;5.982;2022-09-09T03:11:30;99509.88;;;17.13;78.66
36234;BME280;43467;50.890;5.982;2022-09-09T03:13:55;99513.16;;;17.16;78.11
36234;BME280;43467;50.890;5.982;2022-09-09T03:16:24;99507.94;;;17.15;78.03
36234;BME280;43467;50.890;5.982;2022-09-09T03:18:49;99514.75;;;17.08;78.38
36234;BME280;43467;50.890;5.982;2022-09-09T03:21:15;99514.53;;;17.11;78.25
36234;BME280;43467;50.890;5.982;2022-09-09T03:23:41;99513.09;;;17.07;78.53
36234;BME280;43467;50.890;5.982;2022-09-09T03:26:06;99509.09;;;17.01;78.70
36234;BME280;43467;50.890;5.982;2022-09-09T03:28:32;99524.88;;;17.04;78.61
36234;BME280;43467;50.890;5.982;2022-09-09T03:30:59;99511.66;;;17.03;78.69
36234;BME280;43467;50.890;5.982;2022-09-09T03:33:25;99511.44;;;16.95;78.54
36234;BME280;43467;50.890;5.982;2022-09-09T03:35:50;99509.34;;;16.98;78.55
36234;BME280;43467;50.890;5.982;2022-09-09T03:38:16;99493.75;;;16.83;77.97
36234;BME280;43467;50.890;5.982;2022-09-09T03:40:52;99504.97;;;16.97;78.04
36234;BME280;43467;50.890;5.982;2022-09-09T03:43:21;99513.59;;;17.01;77.83
36234;BME280;43467;50.890;5.982;2022-09-09T03:45:47;99507.44;;;16.89;78.17
36234;BME280;43467;50.890;5.982;2022-09-09T03:48:13;99513.25;;;16.94;78.14
36234;BME280;43467;50.890;5.982;2022-09-09T03:50:47;99515.19;;;16.92;78.19
36234;BME280;43467;50.890;5.982;2022-09-09T03:53:14;99503.66;;;16.92;78.00
36234;BME280;43467;50.890;5.982;2022-09-09T03:55:43;99507.44;;;16.89;77.77
36234;BME280;43467;50.890;5.982;2022-09-09T03:58:09;99516.19;;;16.91;77.74
36234;BME280;43467;50.890;5.982;2022-09-09T04:00:35;99509.84;;;16.92;77.96
36234;BME280;43467;50.890;5.982;2022-09-09T04:03:01;99512.53;;;16.92;77.90
36234;BME280;43467;50.890;5.982;2022-09-09T04:05:27;99507.91;;;16.94;77.54
36234;BME280;43467;50.890;5.982;2022-09-09T04:07:52;99504.38;;;16.94;77.88
36234;BME280;43467;50.890;5.982;2022-09-09T04:10:18;99510.06;;;17.00;77.70
36234;BME280;43467;50.890;5.982;2022-09-09T04:12:44;99501.59;;;16.95;77.44
36234;BME280;43467;50.890;5.982;2022-09-09T04:15:09;99508.97;;;17.03;77.56
36234;BME280;43467;50.890;5.982;2022-09-09T04:17:35;99504.47;;;17.03;77.17
36234;BME280;43467;50.890;5.982;2022-09-09T04:20:02;99494.00;;;17.00;77.18
36234;BME280;43467;50.890;5.982;2022-09-09T04:22:28;99479.00;;;16.88;77.49
36234;BME280;43467;50.890;5.982;2022-09-09T04:24:53;99500.38;;;16.99;77.35
36234;BME280;43467;50.890;5.982;2022-09-09T04:27:18;99496.47;;;16.92;77.55
36234;BME280;43467;50.890;5.982;2022-09-09T04:29:44;99490.75;;;16.97;77.33
36234;BME280;43467;50.890;5.982;2022-09-09T04:32:09;99500.16;;;16.91;77.21
36234;BME280;43467;50.890;5.982;2022-09-09T04:34:35;99496.69;;;17.00;77.08
36234;BME280;43467;50.890;5.982;2022-09-09T04:37:00;99497.22;;;16.94;77.48
36234;BME280;43467;50.890;5.982;2022-09-09T04:39:26;99495.84;;;17.00;77.42
36234;BME280;43467;50.890;5.982;2022-09-09T04:41:51;99492.06;;;17.02;76.85
36234;BME280;43467;50.890;5.982;2022-09-09T04:44:17;99479.25;;;16.85;77.15
36234;BME280;43467;50.890;5.982;2022-09-09T04:46:42;99475.09;;;16.92;77.47
36234;BME280;43467;50.890;5.982;2022-09-09T04:49:08;99492.47;;;16.98;76.74
36234;BME280;43467;50.890;5.982;2022-09-09T04:51:33;99492.56;;;16.96;77.07
36234;BME280;43467;50.890;5.982;2022-09-09T04:53:58;99489.19;;;16.94;76.97
36234;BME280;43467;50.890;5.982;2022-09-09T04:56:24;99492.72;;;16.95;76.79
36234;BME280;43467;50.890;5.982;2022-09-09T04:58:52;99487.53;;;16.82;76.76
36234;BME280;43467;50.890;5.982;2022-09-09T05:01:19;99485.72;;;16.83;76.78
36234;BME280;43467;50.890;5.982;2022-09-09T05:03:46;99496.41;;;16.83;76.75
36234;BME280;43467;50.890;5.982;2022-09-09T05:06:14;99499.09;;;16.83;76.64
36234;BME280;43467;50.890;5.982;2022-09-09T05:08:42;99501.88;;;16.81;76.66
36234;BME280;43467;50.890;5.982;2022-09-09T05:13:41;99503.13;;;16.77;76.77
36234;BME280;43467;50.890;5.982;2022-09-09T05:16:07;99498.03;;;16.74;77.31
36234;BME280;43467;50.890;5.982;2022-09-09T05:18:32;99499.25;;;16.70;77.08
36234;BME280;43467;50.890;5.982;2022-09-09T05:21:00;99501.78;;;16.71;77.20
36234;BME280;43467;50.890;5.982;2022-09-09T05:23:26;99498.41;;;16.69;77.01
36234;BME280;43467;50.890;5.982;2022-09-09T05:25:58;99503.28;;;16.64;77.02
36234;BME280;43467;50.890;5.982;2022-09-09T05:28:25;99502.91;;;16.69;77.01
36234;BME280;43467;50.890;5.982;2022-09-09T05:30:58;99499.84;;;16.73;76.81
36234;BME280;43467;50.890;5.982;2022-09-09T05:33:24;99503.53;;;16.61;77.09
36234;BME280;43467;50.890;5.982;2022-09-09T05:36:05;99498.28;;;16.60;77.13
36234;BME280;43467;50.890;5.982;2022-09-09T05:38:32;99505.34;;;16.61;76.74
36234;BME280;43467;50.890;5.982;2022-09-09T05:40:58;99507.38;;;16.68;76.64
36234;BME280;43467;50.890;5.982;2022-09-09T05:43:25;99503.75;;;16.69;76.63
36234;BME280;43467;50.890;5.982;2022-09-09T05:46:05;99498.03;;;16.74;76.21
36234;BME280;43467;50.890;5.982;2022-09-09T05:48:32;99485.03;;;16.69;76.10
36234;BME280;43467;50.890;5.982;2022-09-09T05:51:00;99489.28;;;16.72;75.86
36234;BME280;43467;50.890;5.982;2022-09-09T05:53:26;99492.69;;;16.74;76.09
36234;BME280;43467;50.890;5.982;2022-09-09T05:56:05;99509.94;;;16.70;75.84
36234;BME280;43467;50.890;5.982;2022-09-09T05:58:32;99493.31;;;16.66;75.98
36234;BME280;43467;50.890;5.982;2022-09-09T06:03:39;99502.03;;;16.68;75.87
36234;BME280;43467;50.890;5.982;2022-09-09T06:06:07;99500.94;;;16.71;75.77
36234;BME280;43467;50.890;5.982;2022-09-09T06:08:35;99496.22;;;16.63;75.64
36234;BME280;43467;50.890;5.982;2022-09-09T06:11:12;99498.78;;;16.65;75.53
36234;BME280;43467;50.890;5.982;2022-09-09T06:13:38;99505.56;;;16.69;75.75
36234;BME280;43467;50.890;5.982;2022-09-09T06:16:08;99482.16;;;16.50;75.37
36234;BME280;43467;50.890;5.982;2022-09-09T06:18:34;99511.41;;;16.74;75.38
36234;BME280;43467;50.890;5.982;2022-09-09T06:21:02;99511.50;;;16.72;75.28
36234;BME280;43467;50.890;5.982;2022-09-09T06:23:32;99521.81;;;16.77;75.10
36234;BME280;43467;50.890;5.982;2022-09-09T06:26:18;99516.31;;;16.90;74.72
36234;BME280;43467;50.890;5.982;2022-09-09T06:28:45;99517.75;;;16.94;74.08
36234;BME280;43467;50.890;5.982;2022-09-09T06:31:12;99523.91;;;17.05;73.41
36234;BME280;43467;50.890;5.982;2022-09-09T06:33:40;99524.31;;;17.22;72.78
36234;BME280;43467;50.890;5.982;2022-09-09T06:36:10;99516.59;;;17.28;72.61
36234;BME280;43467;50.890;5.982;2022-09-09T06:38:36;99516.41;;;17.41;72.36
36234;BME280;43467;50.890;5.982;2022-09-09T06:41:02;99511.81;;;17.43;71.77
36234;BME280;43467;50.890;5.982;2022-09-09T06:43:28;99512.47;;;17.56;71.52
36234;BME280;43467;50.890;5.982;2022-09-09T06:46:03;99512.53;;;17.65;71.98
36234;BME280;43467;50.890;5.982;2022-09-09T06:48:29;99503.34;;;17.58;71.13
36234;BME280;43467;50.890;5.982;2022-09-09T06:53:38;99499.28;;;17.43;71.14
36234;BME280;43467;50.890;5.982;2022-09-09T06:58:41;99509.78;;;17.56;71.46
36234;BME280;43467;50.890;5.982;2022-09-09T07:01:12;99507.50;;;17.51;71.20
36234;BME280;43467;50.890;5.982;2022-09-09T07:03:38;99516.34;;;17.63;71.12
36234;BME280;43467;50.890;5.982;2022-09-09T07:06:04;99511.03;;;17.52;71.10
36234;BME280;43467;50.890;5.982;2022-09-09T07:08:30;99505.41;;;17.55;70.70
36234;BME280;43467;50.890;5.982;2022-09-09T07:11:02;99509.78;;;17.56;70.73
36234;BME280;43467;50.890;5.982;2022-09-09T07:13:30;99509.53;;;17.59;70.64
36234;BME280;43467;50.890;5.982;2022-09-09T07:16:03;99508.34;;;17.52;70.88
36234;BME280;43467;50.890;5.982;2022-09-09T07:18:29;99497.31;;;17.66;70.96
36234;BME280;43467;50.890;5.982;2022-09-09T07:20:56;99511.88;;;17.73;70.28
36234;BME280;43467;50.890;5.982;2022-09-09T07:23:22;99499.69;;;17.59;70.37
36234;BME280;43467;50.890;5.982;2022-09-09T07:25:47;99507.34;;;17.74;70.22
36234;BME280;43467;50.890;5.982;2022-09-09T07:28:13;99509.28;;;17.62;70.38
36234;BME280;43467;50.890;5.982;2022-09-09T07:30:39;99509.16;;;17.63;69.88
36234;BME280;43467;50.890;5.982;2022-09-09T07:33:05;99506.47;;;17.63;70.22
36234;BME280;43467;50.890;5.982;2022-09-09T07:35:31;99506.09;;;17.68;69.94
36234;BME280;43467;50.890;5.982;2022-09-09T07:37:56;99505.03;;;17.80;69.95
36234;BME280;43467;50.890;5.982;2022-09-09T07:40:22;99508.00;;;17.87;69.57
36234;BME280;43467;50.890;5.982;2022-09-09T07:42:47;99502.91;;;17.84;69.22
36234;BME280;43467;50.890;5.982;2022-09-09T07:45:13;99498.91;;;17.69;69.03
36234;BME280;43467;50.890;5.982;2022-09-09T07:47:39;99507.16;;;17.86;69.02
36234;BME280;43467;50.890;5.982;2022-09-09T07:50:07;99507.16;;;17.86;68.79
36234;BME280;43467;50.890;5.982;2022-09-09T07:52:34;99509.72;;;17.97;68.64
36234;BME280;43467;50.890;5.982;2022-09-09T07:54:59;99498.44;;;17.94;67.90
36234;BME280;43467;50.890;5.982;2022-09-09T07:57:27;99510.47;;;17.99;68.18
36234;BME280;43467;50.890;5.982;2022-09-09T07:59:55;99506.25;;;18.06;67.54
36234;BME280;43467;50.890;5.982;2022-09-09T08:02:21;99511.75;;;18.05;67.12
36234;BME280;43467;50.890;5.982;2022-09-09T08:04:47;99510.34;;;18.10;67.31
36234;BME280;43467;50.890;5.982;2022-09-09T08:07:12;99507.47;;;18.33;66.80
36234;BME280;43467;50.890;5.982;2022-09-09T08:09:38;99489.25;;;18.17;65.51
36234;BME280;43467;50.890;5.982;2022-09-09T08:12:03;99519.47;;;18.38;65.44
36234;BME280;43467;50.890;5.982;2022-09-09T08:14:30;99519.00;;;18.54;65.67
36234;BME280;43467;50.890;5.982;2022-09-09T08:16:55;99520.16;;;18.61;65.77
36234;BME280;43467;50.890;5.982;2022-09-09T08:19:22;99526.47;;;18.60;65.42
36234;BME280;43467;50.890;5.982;2022-09-09T08:21:48;99528.28;;;18.50;64.74
36234;BME280;43467;50.890;5.982;2022-09-09T08:24:14;99532.34;;;18.44;65.02
36234;BME280;43467;50.890;5.982;2022-09-09T08:26:44;99537.41;;;18.38;64.55
36234;BME280;43467;50.890;5.982;2022-09-09T08:29:11;99535.31;;;18.41;64.31
36234;BME280;43467;50.890;5.982;2022-09-09T08:31:42;99537.41;;;18.38;64.46
36234;BME280;43467;50.890;5.982;2022-09-09T08:34:08;99529.78;;;18.33;63.51
36234;BME280;43467;50.890;5.982;2022-09-09T08:36:39;99539.94;;;18.39;62.38
36234;BME280;43467;50.890;5.982;2022-09-09T08:39:08;99529.63;;;18.35;62.60
36234;BME280;43467;50.890;5.982;2022-09-09T08:52:29;99527.97;;;19.02;61.66
36234;BME280;43467;50.890;5.982;2022-09-09T08:55:03;99519.19;;;19.20;62.12
36234;BME280;43467;50.890;5.982;2022-09-09T08:57:33;99524.41;;;19.21;60.25
36234;BME280;43467;50.890;5.982;2022-09-09T08:59:59;99530.34;;;19.34;60.54
36234;BME280;43467;50.890;5.982;2022-09-09T09:02:46;99530.63;;;19.41;60.17
36234;BME280;43467;50.890;5.982;2022-09-09T09:10:32;99537.81;;;19.40;60.66
36234;BME280;43467;50.890;5.982;2022-09-09T09:12:58;99537.59;;;19.43;61.20
36234;BME280;43467;50.890;5.982;2022-09-09T09:15:31;99537.97;;;19.39;60.93
36234;BME280;43467;50.890;5.982;2022-09-09T09:17:59;99540.53;;;19.50;61.53
36234;BME280;43467;50.890;5.982;2022-09-09T09:23:16;99541.13;;;19.44;60.00
36234;BME280;43467;50.890;5.982;2022-09-09T09:25:44;99540.53;;;19.31;59.83
36234;BME280;43467;50.890;5.982;2022-09-09T09:28:16;99541.94;;;19.35;60.41
36234;BME280;43467;50.890;5.982;2022-09-09T09:35:54;99541.22;;;19.33;59.83
36234;BME280;43467;50.890;5.982;2022-09-09T09:38:25;99548.84;;;19.28;60.36
36234;BME280;43467;50.890;5.982;2022-09-09T09:40:54;99552.94;;;19.32;60.27
36234;BME280;43467;50.890;5.982;2022-09-09T09:43:36;99543.78;;;19.25;60.42
36234;BME280;43467;50.890;5.982;2022-09-09T09:46:05;99554.78;;;19.22;61.04
36234;BME280;43467;50.890;5.982;2022-09-09T09:48:42;99542.06;;;19.04;60.63
36234;BME280;43467;50.890;5.982;2022-09-09T09:51:10;99563.38;;;18.96;60.90
36234;BME280;43467;50.890;5.982;2022-09-09T09:53:38;99557.59;;;19.01;60.76
36234;BME280;43467;50.890;5.982;2022-09-09T09:56:06;99554.34;;;19.17;60.58
36234;BME280;43467;50.890;5.982;2022-09-09T09:58:48;99554.91;;;19.20;60.65
36234;BME280;43467;50.890;5.982;2022-09-09T10:01:33;99557.75;;;19.19;61.06
36234;BME280;43467;50.890;5.982;2022-09-09T10:04:15;99561.72;;;19.34;61.19
36234;BME280;43467;50.890;5.982;2022-09-09T10:06:41;99563.41;;;19.25;60.99
36234;BME280;43467;50.890;5.982;2022-09-09T10:09:29;99575.00;;;19.07;61.38
36234;BME280;43467;50.890;5.982;2022-09-09T10:12:18;99571.72;;;19.13;62.22
36234;BME280;43467;50.890;5.982;2022-09-09T10:15:26;99573.84;;;19.09;62.23
36234;BME280;43467;50.890;5.982;2022-09-09T10:18:06;99584.28;;;19.12;63.99
36234;BME280;43467;50.890;5.982;2022-09-09T10:20:48;99570.91;;;19.22;64.50
36234;BME280;43467;50.890;5.982;2022-09-09T10:23:47;99564.25;;;19.16;64.66
36234;BME280;43467;50.890;5.982;2022-09-09T10:26:43;99567.09;;;19.34;64.14
36234;BME280;43467;50.890;5.982;2022-09-09T10:35:12;99563.44;;;19.54;63.03
36234;BME280;43467;50.890;5.982;2022-09-09T10:46:10;99560.94;;;19.89;61.84
36234;BME280;43467;50.890;5.982;2022-09-09T10:54:13;99556.63;;;19.69;60.99
36234;BME280;43467;50.890;5.982;2022-09-09T10:56:44;99562.84;;;19.70;61.87
36234;BME280;43467;50.890;5.982;2022-09-09T10:59:19;99565.09;;;19.74;61.21
36234;BME280;43467;50.890;5.982;2022-09-09T11:02:36;99557.59;;;19.78;60.75
36234;BME280;43467;50.890;5.982;2022-09-09T11:04:56;99550.59;;;20.04;60.99
36234;BME280;43467;50.890;5.982;2022-09-09T11:10:40;99553.78;;;19.80;61.08
36234;BME280;43467;50.890;5.982;2022-09-09T11:13:22;99562.69;;;19.71;60.59
36234;BME280;43467;50.890;5.982;2022-09-09T11:15:54;99547.81;;;19.77;60.53
36234;BME280;43467;50.890;5.982;2022-09-09T11:18:23;99548.56;;;19.69;61.09
36234;BME280;43467;50.890;5.982;2022-09-09T11:20:54;99547.06;;;19.47;61.42
36234;BME280;43467;50.890;5.982;2022-09-09T11:23:52;99548.03;;;19.56;61.54
36234;BME280;43467;50.890;5.982;2022-09-09T11:26:27;99550.00;;;19.54;62.55
36234;BME280;43467;50.890;5.982;2022-09-09T11:32:27;99553.25;;;19.58;62.67
36234;BME280;43467;50.890;5.982;2022-09-09T11:40:32;99558.75;;;19.18;67.96
36234;BME280;43467;50.890;5.982;2022-09-09T11:43:24;99583.16;;;18.86;71.32
36234;BME280;43467;50.890;5.982;2022-09-09T11:45:56;99576.97;;;18.95;70.83
36234;BME280;43467;50.890;5.982;2022-09-09T11:51:09;99576.66;;;18.88;71.12
36234;BME280;43467;50.890;5.982;2022-09-09T11:56:30;99578.47;;;18.88;70.55
36234;BME280;43467;50.890;5.982;2022-09-09T11:59:03;99565.63;;;18.82;69.19
36234;BME280;43467;50.890;5.982;2022-09-09T12:01:44;99577.22;;;18.82;69.32
36234;BME280;43467;50.890;5.982;2022-09-09T12:04:27;99547.25;;;18.68;68.87
36234;BME280;43467;50.890;5.982;2022-09-09T12:09:46;99561.25;;;18.81;69.57
36234;BME280;43467;50.890;5.982;2022-09-09T12:14:54;99555.09;;;19.19;67.65
36234;BME280;43467;50.890;5.982;2022-09-09T12:17:25;99554.78;;;19.41;67.85
36234;BME280;43467;50.890;5.982;2022-09-09T12:20:12;99550.38;;;19.40;67.81
36234;BME280;43467;50.890;5.982;2022-09-09T12:25:35;99561.13;;;19.69;65.85
36234;BME280;43467;50.890;5.982;2022-09-09T12:28:28;99544.19;;;19.68;64.69
36234;BME280;43467;50.890;5.982;2022-09-09T12:31:19;99547.75;;;19.59;63.72
36234;BME280;43467;50.890;5.982;2022-09-09T12:33:47;99556.78;;;19.58;64.43
36234;BME280;43467;50.890;5.982;2022-09-09T12:36:29;99553.53;;;19.45;64.78
36234;BME280;43467;50.890;5.982;2022-09-09T12:38:57;99553.94;;;19.31;65.70
36234;BME280;43467;50.890;5.982;2022-09-09T12:41:26;99566.94;;;19.26;66.39
36234;BME280;43467;50.890;5.982;2022-09-09T12:44:04;99566.22;;;19.24;67.79
36234;BME280;43467;50.890;5.982;2022-09-09T12:46:43;99566.81;;;19.27;68.46
36234;BME280;43467;50.890;5.982;2022-09-09T12:51:54;99550.59;;;20.04;70.17
36234;BME280;43467;50.890;5.982;2022-09-09T12:54:22;99543.00;;;20.36;69.29
36234;BME280;43467;50.890;5.982;2022-09-09T12:56:48;99543.09;;;20.45;66.38
36234;BME280;43467;50.890;5.982;2022-09-09T12:59:41;99534.56;;;20.76;66.17
36234;BME280;43467;50.890;5.982;2022-09-09T13:02:21;99530.41;;;21.00;64.90
36234;BME280;43467;50.890;5.982;2022-09-09T13:04:46;99531.28;;;21.00;64.10
36234;BME280;43467;50.890;5.982;2022-09-09T13:07:13;99520.69;;;20.99;64.14
36234;BME280;43467;50.890;5.982;2022-09-09T13:09:41;99526.69;;;21.28;63.19
36234;BME280;43467;50.890;5.982;2022-09-09T13:12:13;99520.75;;;21.24;61.45
36234;BME280;43467;50.890;5.982;2022-09-09T13:14:43;99513.34;;;21.44;62.17
36234;BME280;43467;50.890;5.982;2022-09-09T13:17:23;99519.84;;;21.33;61.25
36234;BME280;43467;50.890;5.982;2022-09-09T13:19:50;99525.50;;;21.48;60.84
36234;BME280;43467;50.890;5.982;2022-09-09T13:22:36;99519.88;;;21.59;59.13
36234;BME280;43467;50.890;5.982;2022-09-09T13:25:18;99516.44;;;21.75;59.37
36234;BME280;43467;50.890;5.982;2022-09-09T13:30:36;99513.84;;;21.65;59.23
36234;BME280;43467;50.890;5.982;2022-09-09T13:36:00;99498.06;;;21.09;60.39
36234;BME280;43467;50.890;5.982;2022-09-09T13:38:29;99503.38;;;21.01;60.99
36234;BME280;43467;50.890;5.982;2022-09-09T13:40:57;99502.84;;;20.98;60.42
36234;BME280;43467;50.890;5.982;2022-09-09T13:43:25;99495.97;;;20.85;59.62
36234;BME280;43467;50.890;5.982;2022-09-09T13:46:00;99509.84;;;20.91;59.95
36234;BME280;43467;50.890;5.982;2022-09-09T13:48:26;99504.22;;;21.02;59.20
36234;BME280;43467;50.890;5.982;2022-09-09T13:51:03;99499.84;;;21.18;57.99
36234;BME280;43467;50.890;5.982;2022-09-09T13:53:30;99511.84;;;21.06;57.78
36234;BME280;43467;50.890;5.982;2022-09-09T13:55:57;99504.00;;;21.13;57.99
36234;BME280;43467;50.890;5.982;2022-09-09T13:58:24;99508.38;;;21.31;57.75
36234;BME280;43467;50.890;5.982;2022-09-09T14:00:51;99504.53;;;21.34;56.32
36234;BME280;43467;50.890;5.982;2022-09-09T14:03:16;99497.41;;;21.76;55.80
36234;BME280;43467;50.890;5.982;2022-09-09T14:05:43;99509.03;;;21.95;55.30
36234;BME280;43467;50.890;5.982;2022-09-09T14:08:18;99502.19;;;21.83;54.56
36234;BME280;43467;50.890;5.982;2022-09-09T14:10:45;99495.94;;;21.56;54.19
36234;BME280;43467;50.890;5.982;2022-09-09T14:13:11;99500.97;;;21.77;54.82
36234;BME280;43467;50.890;5.982;2022-09-09T14:15:37;99497.69;;;21.65;54.74
36234;BME280;43467;50.890;5.982;2022-09-09T14:18:02;99498.84;;;21.89;54.79
36234;BME280;43467;50.890;5.982;2022-09-09T14:20:28;99503.34;;;21.80;55.28
36234;BME280;43467;50.890;5.982;2022-09-09T14:22:53;99495.41;;;21.53;55.36
36234;BME280;43467;50.890;5.982;2022-09-09T14:25:18;99498.50;;;21.40;55.70
36234;BME280;43467;50.890;5.982;2022-09-09T14:27:44;99497.53;;;21.23;56.44
36234;BME280;43467;50.890;5.982;2022-09-09T14:30:11;99503.63;;;21.25;56.39
36234;BME280;43467;50.890;5.982;2022-09-09T14:32:37;99502.50;;;21.01;56.69
36234;BME280;43467;50.890;5.982;2022-09-09T14:35:02;99509.66;;;21.10;57.96
36234;BME280;43467;50.890;5.982;2022-09-09T14:37:28;99511.38;;;21.98;55.43
36234;BME280;43467;50.890;5.982;2022-09-09T14:39:56;99512.91;;;21.74;55.24
36234;BME280;43467;50.890;5.982;2022-09-09T14:42:21;99505.81;;;21.73;55.48
36234;BME280;43467;50.890;5.982;2022-09-09T14:44:47;99514.94;;;21.80;55.68
36234;BME280;43467;50.890;5.982;2022-09-09T14:47:13;99509.72;;;21.53;55.42
36234;BME280;43467;50.890;5.982;2022-09-09T14:49:38;99514.44;;;21.33;56.59
36234;BME280;43467;50.890;5.982;2022-09-09T14:52:04;99515.63;;;21.31;57.22
36234;BME280;43467;50.890;5.982;2022-09-09T14:54:30;99510.16;;;22.60;54.72
36234;BME280;43467;50.890;5.982;2022-09-09T14:56:56;99517.66;;;22.32;55.50
36234;BME280;43467;50.890;5.982;2022-09-09T14:59:21;99507.31;;;22.19;56.13
36234;BME280;43467;50.890;5.982;2022-09-09T15:01:47;99500.34;;;22.09;56.34
36234;BME280;43467;50.890;5.982;2022-09-09T15:04:13;99494.72;;;21.76;57.54
36234;BME280;43467;50.890;5.982;2022-09-09T15:06:42;99510.91;;;21.51;58.55
36234;BME280;43467;50.890;5.982;2022-09-09T15:09:09;99508.28;;;21.06;64.91
36234;BME280;43467;50.890;5.982;2022-09-09T15:11:36;99504.94;;;20.59;66.33
36234;BME280;43467;50.890;5.982;2022-09-09T15:14:04;99506.34;;;20.35;67.53
36234;BME280;43467;50.890;5.982;2022-09-09T15:16:29;99503.81;;;20.34;68.70
36234;BME280;43467;50.890;5.982;2022-09-09T15:18:58;99489.88;;;20.48;69.80
36234;BME280;43467;50.890;5.982;2022-09-09T15:21:28;99492.09;;;22.10;64.58
36234;BME280;43467;50.890;5.982;2022-09-09T15:23:55;99480.94;;;22.05;64.32
36234;BME280;43467;50.890;5.982;2022-09-09T15:26:20;99492.56;;;22.90;61.48